createdAt,value
2016-12-06T00:00:02.495Z,63.7
2016-12-06T00:01:02.820Z,63.89
2016-12-06T00:02:02.518Z,62.47
2016-12-06T00:03:02.535Z,63.6
2016-12-06T00:04:02.540Z,63.7
2016-12-06T00:05:02.869Z,62.94
2016-12-06T00:06:02.561Z,62.85
2016-12-06T00:07:02.890Z,62.85
2016-12-06T00:08:02.582Z,62.56
2016-12-06T00:09:02.909Z,62.66
2016-12-06T00:10:02.936Z,62.09
2016-12-06T00:11:02.935Z,62.09
2016-12-06T00:12:02.945Z,62.09
2016-12-06T00:13:02.956Z,61.71
2016-12-06T00:14:02.653Z,61.9
2016-12-06T00:15:02.977Z,61.52
2016-12-06T00:16:02.676Z,61.52
2016-12-06T00:17:03.001Z,61.61
2016-12-06T00:18:03.014Z,61.8
2016-12-06T00:19:03.021Z,61.71
2016-12-06T00:20:02.718Z,62.09
2016-12-06T00:21:03.045Z,62.28
2016-12-06T00:22:02.742Z,62.18
2016-12-06T00:23:03.066Z,61.52
2016-12-06T00:24:02.766Z,61.52
2016-12-06T00:25:02.775Z,61.61
2016-12-06T00:26:03.149Z,61.52
2016-12-06T00:27:02.796Z,61.43
2016-12-06T00:28:03.128Z,61.52
2016-12-06T00:29:02.822Z,61.8
2016-12-06T00:30:03.149Z,61.9
2016-12-06T00:31:03.161Z,61.61
2016-12-06T00:32:03.196Z,62.09
2016-12-06T00:33:02.864Z,62.47
2016-12-06T00:34:02.875Z,62.47
2016-12-06T00:35:02.886Z,63.7
2016-12-06T00:36:02.898Z,63.85
2016-12-06T00:37:03.225Z,63.85
2016-12-06T00:38:02.923Z,63.57
2016-12-06T00:39:02.932Z,63.7
2016-12-06T00:40:02.943Z,63.04
2016-12-06T00:41:03.270Z,62.28
2016-12-06T00:42:02.966Z,62.18
2016-12-06T00:43:03.292Z,62.37
2016-12-06T00:44:02.987Z,62.18
2016-12-06T00:45:03.316Z,61.71
2016-12-06T00:46:03.327Z,62.66
2016-12-06T00:47:03.339Z,62.47
2016-12-06T00:48:03.031Z,62.28
2016-12-06T00:49:03.361Z,62.37
2016-12-06T00:50:03.057Z,61.52
2016-12-06T00:51:03.381Z,62.18
2016-12-06T00:52:03.079Z,62.09
2016-12-06T00:53:03.420Z,62.47
2016-12-06T00:54:03.116Z,62.75
2016-12-06T00:55:03.428Z,62.28
2016-12-06T00:56:03.129Z,62.09
2016-12-06T00:57:03.449Z,62.37
2016-12-06T00:58:03.460Z,62.37
2016-12-06T00:59:03.157Z,62.75
2016-12-06T01:00:03.483Z,62.09
2016-12-06T01:01:03.498Z,62.37
2016-12-06T01:02:03.506Z,61.99
2016-12-06T01:03:03.199Z,62.18
2016-12-06T01:04:03.532Z,62.09
2016-12-06T01:05:03.223Z,61.99
2016-12-06T01:06:03.578Z,62.28
2016-12-06T01:07:03.566Z,62.18
2016-12-06T01:08:03.258Z,62.94
2016-12-06T01:09:03.269Z,63.51
2016-12-06T01:10:03.612Z,64.04
2016-12-06T01:11:03.289Z,64.26
2016-12-06T01:12:03.617Z,64.9
2016-12-06T01:13:03.627Z,64.52
2016-12-06T01:14:03.331Z,65.28
2016-12-06T01:15:03.654Z,65.56
2016-12-06T01:16:03.348Z,65.47
2016-12-06T01:17:03.358Z,65.66
2016-12-06T01:18:03.683Z,66.41
2016-12-06T01:19:03.699Z,67.17
2016-12-06T01:20:03.392Z,67.55
2016-12-06T01:21:03.404Z,67.07
2016-12-06T01:22:03.732Z,66.88
2016-12-06T01:23:03.423Z,66.31
2016-12-06T01:24:03.434Z,66.22
2016-12-06T01:25:03.768Z,65.84
2016-12-06T01:26:03.455Z,65.12
2016-12-06T01:27:03.470Z,64.55
2016-12-06T01:28:03.489Z,63.98
2016-12-06T01:29:03.808Z,64.26
2016-12-06T01:30:03.815Z,64.07
2016-12-06T01:31:03.831Z,63.98
2016-12-06T01:32:03.522Z,63.7
2016-12-06T01:33:03.533Z,63.98
2016-12-06T01:34:03.860Z,63.89
2016-12-06T01:35:03.872Z,63.89
2016-12-06T01:36:03.567Z,63.79
2016-12-06T01:37:03.579Z,63.23
2016-12-06T01:38:03.619Z,63.76
2016-12-06T01:39:03.601Z,64.04
2016-12-06T01:40:03.925Z,64.33
2016-12-06T01:41:03.936Z,63.95
2016-12-06T01:42:03.635Z,64.14
2016-12-06T01:43:03.962Z,64.17
2016-12-06T01:44:03.969Z,64.07
2016-12-06T01:45:03.665Z,64.17
2016-12-06T01:46:03.992Z,64.26
2016-12-06T01:47:03.688Z,63.98
2016-12-06T01:48:03.703Z,63.7
2016-12-06T01:49:04.025Z,63.51
2016-12-06T01:50:03.723Z,63.23
2016-12-06T01:51:04.050Z,63.51
2016-12-06T01:52:04.058Z,63.32
2016-12-06T01:53:03.754Z,62.94
2016-12-06T01:54:03.770Z,63.32
2016-12-06T01:55:03.780Z,63.7
2016-12-06T01:56:03.787Z,63.57
2016-12-06T01:57:04.113Z,63.89
2016-12-06T01:58:04.127Z,63.48
2016-12-06T01:59:04.137Z,63.48
2016-12-06T02:00:04.161Z,63.85
2016-12-06T02:01:03.842Z,64.14
2016-12-06T02:02:03.855Z,64.14
2016-12-06T02:03:03.863Z,64.14
2016-12-06T02:04:04.193Z,64.23
2016-12-06T02:05:04.207Z,63.95
2016-12-06T02:06:04.213Z,63.76
2016-12-06T02:07:03.910Z,63.48
2016-12-06T02:08:04.236Z,63.2
2016-12-06T02:09:04.248Z,63.48
2016-12-06T02:10:04.257Z,63.6
2016-12-06T02:11:03.974Z,63.39
2016-12-06T02:12:03.988Z,63.29
2016-12-06T02:13:03.976Z,62.82
2016-12-06T02:14:04.305Z,62.47
2016-12-06T02:15:04.006Z,62.56
2016-12-06T02:16:04.009Z,62.09
2016-12-06T02:17:04.021Z,62.37
2016-12-06T02:18:04.040Z,62.47
2016-12-06T02:19:04.052Z,62.09
2016-12-06T02:20:04.053Z,62.09
2016-12-06T02:21:04.066Z,62.28
2016-12-06T02:22:04.073Z,62.18
2016-12-06T02:23:04.402Z,62.09
2016-12-06T02:24:04.418Z,61.52
2016-12-06T02:25:04.110Z,61.71
2016-12-06T02:26:04.436Z,61.8
2016-12-06T02:27:04.444Z,61.8
2016-12-06T02:28:04.140Z,61.33
2016-12-06T02:29:04.469Z,61.05
2016-12-06T02:30:04.479Z,61.24
2016-12-06T02:31:04.489Z,60.67
2016-12-06T02:32:04.498Z,61.24
2016-12-06T02:33:04.512Z,61.71
2016-12-06T02:34:04.524Z,61.24
2016-12-06T02:35:04.221Z,61.71
2016-12-06T02:36:04.227Z,61.05
2016-12-06T02:37:04.239Z,60.67
2016-12-06T02:38:04.252Z,61.15
2016-12-06T02:39:04.261Z,61.24
2016-12-06T02:40:04.274Z,61.24
2016-12-06T02:41:04.280Z,61.33
2016-12-06T02:42:04.612Z,61.61
2016-12-06T02:43:04.305Z,61.61
2016-12-06T02:44:04.321Z,61.99
2016-12-06T02:45:04.328Z,62.09
2016-12-06T02:46:04.339Z,61.99
2016-12-06T02:47:04.348Z,62.18
2016-12-06T02:48:04.360Z,62.28
2016-12-06T02:49:04.371Z,61.99
2016-12-06T02:50:04.382Z,62.18
2016-12-06T02:51:04.395Z,61.99
2016-12-06T02:52:04.401Z,62.15
2016-12-06T02:53:04.745Z,62.06
2016-12-06T02:54:04.437Z,61.87
2016-12-06T02:55:04.437Z,62.15
2016-12-06T02:56:04.762Z,61.96
2016-12-06T02:57:04.458Z,62.25
2016-12-06T02:58:04.469Z,62.47
2016-12-06T02:59:04.795Z,61.61
2016-12-06T03:00:04.489Z,61.71
2016-12-06T03:01:04.503Z,61.52
2016-12-06T03:02:04.514Z,61.77
2016-12-06T03:03:04.525Z,61.77
2016-12-06T03:04:04.851Z,62.15
2016-12-06T03:05:04.885Z,62.25
2016-12-06T03:06:04.870Z,62.53
2016-12-06T03:07:04.886Z,62.06
2016-12-06T03:08:04.896Z,62.44
2016-12-06T03:09:04.908Z,62.34
2016-12-06T03:10:04.919Z,62.53
2016-12-06T03:11:04.614Z,63.39
2016-12-06T03:12:04.621Z,63.1
2016-12-06T03:13:04.950Z,62.44
2016-12-06T03:14:04.642Z,62.06
2016-12-06T03:15:04.655Z,62.25
2016-12-06T03:16:04.667Z,62.15
2016-12-06T03:17:04.993Z,62.06
2016-12-06T03:18:04.687Z,61.58
2016-12-06T03:19:05.013Z,61.96
2016-12-06T03:20:04.711Z,61.77
2016-12-06T03:21:04.724Z,61.68
2016-12-06T03:22:04.734Z,61.87
2016-12-06T03:23:05.057Z,61.58
2016-12-06T03:24:04.754Z,62.06
2016-12-06T03:25:04.764Z,61.96
2016-12-06T03:26:05.088Z,61.58
2016-12-06T03:27:05.102Z,61.58
2016-12-06T03:28:05.112Z,61.68
2016-12-06T03:29:05.121Z,61.68
2016-12-06T03:30:04.819Z,61.49
2016-12-06T03:31:05.145Z,61.68
2016-12-06T03:32:04.841Z,61.96
2016-12-06T03:33:05.168Z,61.58
2016-12-06T03:34:05.175Z,61.49
2016-12-06T03:35:04.873Z,61.58
2016-12-06T03:36:04.884Z,61.49
2016-12-06T03:37:04.894Z,61.21
2016-12-06T03:38:05.218Z,61.24
2016-12-06T03:39:04.916Z,61.49
2016-12-06T03:40:05.242Z,61.05
2016-12-06T03:41:04.938Z,61.24
2016-12-06T03:42:05.265Z,61.33
2016-12-06T03:43:05.291Z,61.15
2016-12-06T03:44:04.990Z,61.11
2016-12-06T03:45:05.298Z,61.21
2016-12-06T03:46:05.312Z,61.11
2016-12-06T03:47:05.319Z,60.64
2016-12-06T03:48:05.332Z,61.02
2016-12-06T03:49:05.027Z,61.11
2016-12-06T03:50:05.044Z,61.11
2016-12-06T03:51:05.053Z,61.15
2016-12-06T03:52:05.373Z,60.67
2016-12-06T03:53:05.388Z,61.33
2016-12-06T03:54:05.393Z,61.58
2016-12-06T03:55:05.091Z,62.25
2016-12-06T03:56:05.416Z,62.44
2016-12-06T03:57:05.425Z,61.87
2016-12-06T03:58:05.121Z,62.15
2016-12-06T03:59:05.450Z,61.58
2016-12-06T04:00:05.146Z,61.49
2016-12-06T04:01:05.156Z,61.3
2016-12-06T04:02:05.482Z,61.43
2016-12-06T04:03:05.177Z,61.68
2016-12-06T04:04:05.190Z,61.52
2016-12-06T04:05:05.515Z,61.96
2016-12-06T04:06:05.208Z,61.49
2016-12-06T04:07:05.220Z,61.24
2016-12-06T04:08:05.548Z,61.68
2016-12-06T04:09:05.556Z,62.25
2016-12-06T04:10:05.569Z,61.87
2016-12-06T04:11:05.263Z,62.15
2016-12-06T04:12:05.283Z,61.58
2016-12-06T04:13:05.285Z,61.58
2016-12-06T04:14:05.614Z,61.4
2016-12-06T04:15:05.307Z,61.68
2016-12-06T04:16:05.317Z,61.4
2016-12-06T04:17:05.645Z,60.96
2016-12-06T04:18:05.654Z,61.3
2016-12-06T04:19:05.349Z,61.77
2016-12-06T04:20:05.362Z,61.4
2016-12-06T04:21:05.694Z,61.4
2016-12-06T04:22:05.382Z,61.58
2016-12-06T04:23:05.709Z,61.68
2016-12-06T04:24:05.722Z,61.4
2016-12-06T04:25:05.427Z,61.77
2016-12-06T04:26:05.439Z,61.68
2016-12-06T04:27:05.783Z,61.49
2016-12-06T04:28:05.445Z,61.43
2016-12-06T04:29:05.456Z,61.58
2016-12-06T04:30:05.469Z,61.61
2016-12-06T04:31:05.797Z,61.02
2016-12-06T04:32:05.492Z,61.11
2016-12-06T04:33:05.816Z,61.11
2016-12-06T04:34:05.827Z,61.11
2016-12-06T04:35:05.837Z,61.02
2016-12-06T04:36:05.532Z,61.21
2016-12-06T04:37:05.860Z,61.02
2016-12-06T04:38:05.554Z,60.83
2016-12-06T04:39:05.890Z,60.45
2016-12-06T04:40:05.578Z,60.64
2016-12-06T04:41:05.901Z,60.45
2016-12-06T04:42:05.598Z,60.74
2016-12-06T04:43:05.613Z,60.93
2016-12-06T04:44:05.618Z,60.93
2016-12-06T04:45:05.630Z,60.55
2016-12-06T04:47:05.654Z,61.4
2016-12-06T04:48:05.663Z,61.68
2016-12-06T04:49:05.987Z,61.4
2016-12-06T04:50:05.682Z,61.58
2016-12-06T04:51:06.059Z,61.58
2016-12-06T04:52:05.706Z,61.68
2016-12-06T04:53:05.717Z,61.02
2016-12-06T04:54:06.043Z,60.93
2016-12-06T04:55:06.050Z,60.74
2016-12-06T04:56:06.062Z,61.21
2016-12-06T04:57:06.075Z,61.02
2016-12-06T04:58:06.084Z,61.11
2016-12-06T04:59:06.095Z,61.11
2016-12-06T05:00:06.109Z,60.64
2016-12-06T05:01:05.799Z,60.64
2016-12-06T05:02:05.859Z,60.45
2016-12-06T05:03:06.137Z,60.64
2016-12-06T05:04:06.164Z,60.07
2016-12-06T05:05:05.847Z,59.98
2016-12-06T05:06:06.168Z,59.63
2016-12-06T05:07:05.865Z,59.25
2016-12-06T05:08:05.876Z,60.29
2016-12-06T05:09:05.886Z,59.88
2016-12-06T05:10:05.897Z,60.45
2016-12-06T05:11:06.229Z,61.21
2016-12-06T05:12:05.919Z,61.4
2016-12-06T05:13:05.930Z,61.02
2016-12-06T05:14:06.020Z,60.64
2016-12-06T05:15:06.266Z,60.74
2016-12-06T05:16:05.961Z,60.86
2016-12-06T05:17:06.295Z,60.83
2016-12-06T05:18:06.300Z,60.67
2016-12-06T05:19:06.310Z,60.67
2016-12-06T05:20:06.321Z,60.86
2016-12-06T05:21:06.016Z,61.15
2016-12-06T05:22:06.359Z,61.43
2016-12-06T05:23:06.054Z,61.8
2016-12-06T05:24:06.052Z,62.18
2016-12-06T05:25:06.060Z,61.99
2016-12-06T05:26:06.072Z,62.09
2016-12-06T05:27:06.400Z,61.43
2016-12-06T05:28:06.094Z,61.8
2016-12-06T05:29:06.163Z,61.52
2016-12-06T05:30:06.121Z,61.8
2016-12-06T05:31:06.438Z,61.8
2016-12-06T05:32:06.138Z,62.18
2016-12-06T05:33:06.148Z,61.71
2016-12-06T05:34:06.470Z,61.71
2016-12-06T05:35:06.170Z,61.61
2016-12-06T05:36:06.185Z,61.71
2016-12-06T05:37:06.503Z,61.71
2016-12-06T05:38:06.203Z,61.61
2016-12-06T05:39:06.549Z,61.52
2016-12-06T05:40:06.224Z,61.71
2016-12-06T05:41:06.553Z,61.99
2016-12-06T05:42:06.243Z,61.8
2016-12-06T05:43:06.579Z,61.8
2016-12-06T05:44:06.270Z,61.24
2016-12-06T05:45:06.279Z,61.52
2016-12-06T05:46:06.290Z,61.15
2016-12-06T05:47:06.618Z,61.15
2016-12-06T05:48:06.310Z,61.15
2016-12-06T05:49:06.322Z,61.15
2016-12-06T05:50:06.651Z,61.15
2016-12-06T05:51:06.344Z,61.24
2016-12-06T05:52:06.358Z,60.58
2016-12-06T05:53:06.684Z,60.86
2016-12-06T05:54:06.378Z,61.05
2016-12-06T05:55:06.703Z,61.33
2016-12-06T05:56:06.718Z,61.24
2016-12-06T05:57:06.429Z,61.15
2016-12-06T05:58:06.740Z,61.05
2016-12-06T05:59:06.749Z,61.05
2016-12-06T06:00:06.446Z,61.24
2016-12-06T06:01:06.774Z,61.61
2016-12-06T06:02:06.784Z,61.71
2016-12-06T06:03:06.797Z,61.52
2016-12-06T06:04:06.496Z,61.71
2016-12-06T06:05:06.818Z,61.55
2016-12-06T06:06:06.514Z,61.33
2016-12-06T06:07:06.840Z,61.27
2016-12-06T06:08:06.536Z,60.99
2016-12-06T06:09:06.548Z,60.89
2016-12-06T06:10:06.561Z,61.18
2016-12-06T06:11:06.572Z,61.18
2016-12-06T06:12:06.584Z,61.08
2016-12-06T06:13:06.591Z,60.7
2016-12-06T06:14:06.920Z,60.41
2016-12-06T06:15:06.936Z,61.08
2016-12-06T06:16:06.943Z,60.99
2016-12-06T06:17:06.639Z,60.41
2016-12-06T06:18:06.966Z,60.13
2016-12-06T06:19:06.662Z,60.99
2016-12-06T06:20:06.994Z,60.61
2016-12-06T06:21:06.998Z,60.32
2016-12-06T06:22:07.010Z,60.13
2016-12-06T06:23:06.709Z,60.41
2016-12-06T06:24:07.031Z,61.08
2016-12-06T06:25:07.047Z,61.08
2016-12-06T06:26:07.055Z,61.18
2016-12-06T06:27:07.069Z,61.74
2016-12-06T06:28:06.771Z,61.93
2016-12-06T06:29:07.100Z,62.02
2016-12-06T06:30:07.102Z,61.55
2016-12-06T06:31:06.825Z,60.99
2016-12-06T06:32:07.124Z,61.08
2016-12-06T06:33:06.819Z,61.27
2016-12-06T06:34:06.833Z,60.51
2016-12-06T06:35:06.847Z,60.99
2016-12-06T06:36:07.177Z,60.86
2016-12-06T06:37:07.183Z,61.8
2016-12-06T06:38:06.877Z,62.31
2016-12-06T06:39:07.208Z,61.99
2016-12-06T06:40:06.913Z,62.56
2016-12-06T06:41:06.924Z,62.37
2016-12-06T06:42:06.924Z,61.99
2016-12-06T06:43:07.250Z,62.18
2016-12-06T06:44:06.946Z,62.28
2016-12-06T06:45:06.957Z,62.09
2016-12-06T06:46:07.285Z,62.12
2016-12-06T06:47:06.982Z,61.65
2016-12-06T06:48:06.994Z,61.93
2016-12-06T06:49:07.005Z,61.65
2016-12-06T06:50:07.355Z,61.55
2016-12-06T06:51:07.341Z,61.65
2016-12-06T06:52:07.354Z,62.12
2016-12-06T06:53:07.367Z,62.5
2016-12-06T06:54:07.070Z,62.12
2016-12-06T06:55:07.506Z,62.02
2016-12-06T06:56:07.403Z,62.21
2016-12-06T06:57:07.099Z,62.12
2016-12-06T06:58:07.112Z,61.65
2016-12-06T06:59:07.438Z,61.65
2016-12-06T07:00:07.449Z,61.83
2016-12-06T07:01:07.482Z,61.18
2016-12-06T07:02:07.155Z,61.55
2016-12-06T07:03:07.485Z,61.74
2016-12-06T07:04:07.179Z,61.55
2016-12-06T07:05:07.507Z,61.93
2016-12-06T07:06:07.202Z,61.65
2016-12-06T07:07:07.216Z,61.65
2016-12-06T07:08:07.548Z,61.65
2016-12-06T07:09:07.553Z,61.74
2016-12-06T07:10:07.253Z,62.12
2016-12-06T07:11:07.578Z,61.83
2016-12-06T07:12:07.591Z,61.93
2016-12-06T07:13:07.601Z,61.65
2016-12-06T07:14:07.295Z,61.74
2016-12-06T07:15:07.625Z,62.12
2016-12-06T07:16:07.319Z,61.65
2016-12-06T07:17:07.332Z,61.83
2016-12-06T07:18:07.662Z,61.74
2016-12-06T07:19:07.357Z,61.18
2016-12-06T07:20:07.684Z,61.36
2016-12-06T07:21:07.697Z,60.89
2016-12-06T07:22:07.710Z,61.08
2016-12-06T07:23:07.404Z,60.61
2016-12-06T07:24:07.730Z,60.89
2016-12-06T07:25:07.430Z,61.18
2016-12-06T07:26:07.773Z,60.89
2016-12-06T07:27:07.455Z,61.18
2016-12-06T07:28:07.463Z,61.27
2016-12-06T07:29:07.791Z,60.99
2016-12-06T07:30:07.488Z,60.99
2016-12-06T07:31:07.498Z,60.89
2016-12-06T07:32:07.828Z,60.89
2016-12-06T07:33:07.524Z,60.32
2016-12-06T07:34:07.850Z,60.41
2016-12-06T07:35:07.863Z,60.32
2016-12-06T07:36:07.557Z,60.51
2016-12-06T07:37:07.590Z,60.44
2016-12-06T07:38:07.900Z,60.35
2016-12-06T07:39:07.595Z,59.88
2016-12-06T07:40:07.607Z,59.97
2016-12-06T07:41:07.933Z,59.97
2016-12-06T07:42:07.630Z,60.06
2016-12-06T07:43:07.642Z,60.16
2016-12-06T07:44:07.654Z,59.97
2016-12-06T07:45:07.668Z,60.35
2016-12-06T07:46:07.998Z,60.44
2016-12-06T07:47:08.028Z,59.78
2016-12-06T07:48:07.702Z,59.5
2016-12-06T07:49:07.718Z,59.12
2016-12-06T07:50:08.044Z,58.74
2016-12-06T07:51:08.058Z,58.74
2016-12-06T07:52:08.068Z,58.55
2016-12-06T07:53:07.767Z,57.89
2016-12-06T07:54:07.778Z,57.89
2016-12-06T07:55:07.790Z,57.6
2016-12-06T07:56:07.801Z,57.82
2016-12-06T07:57:08.132Z,57.42
2016-12-06T07:58:07.843Z,57.73
2016-12-06T07:59:07.853Z,57.92
2016-12-06T08:00:07.855Z,58.29
2016-12-06T08:01:07.863Z,58.86
2016-12-06T08:02:07.878Z,59.15
2016-12-06T08:03:08.206Z,59.05
2016-12-06T08:04:08.218Z,58.96
2016-12-06T08:05:08.239Z,58.39
2016-12-06T08:06:08.250Z,58.39
2016-12-06T08:07:08.255Z,58.11
2016-12-06T08:08:08.270Z,58.67
2016-12-06T08:09:08.283Z,58.48
2016-12-06T08:10:07.986Z,59.25
2016-12-06T08:11:08.306Z,58.86
2016-12-06T08:12:08.003Z,58.67
2016-12-06T08:13:08.334Z,58.86
2016-12-06T08:14:08.029Z,59.25
2016-12-06T08:15:08.041Z,59.91
2016-12-06T08:16:08.383Z,59.91
2016-12-06T08:17:08.386Z,59.91
2016-12-06T08:18:08.081Z,59.72
2016-12-06T08:19:08.413Z,59.91
2016-12-06T08:20:08.107Z,60.47
2016-12-06T08:21:08.435Z,60.95
2016-12-06T08:22:08.131Z,60.86
2016-12-06T08:23:08.143Z,60.19
2016-12-06T08:24:08.159Z,60.28
2016-12-06T08:25:08.170Z,60.1
2016-12-06T08:26:08.184Z,60.19
2016-12-06T08:27:08.196Z,59.81
2016-12-06T08:28:08.208Z,59.81
2016-12-06T08:29:08.228Z,60.1
2016-12-06T08:30:08.237Z,59.84
2016-12-06T08:31:08.564Z,59.37
2016-12-06T08:32:08.576Z,59.08
2016-12-06T08:33:08.275Z,58.89
2016-12-06T08:34:08.287Z,59.08
2016-12-06T08:35:08.302Z,59.27
2016-12-06T08:36:08.631Z,59.08
2016-12-06T08:37:08.639Z,58.99
2016-12-06T08:38:08.346Z,59.18
2016-12-06T08:39:08.356Z,59.08
2016-12-06T08:40:08.364Z,58.89
2016-12-06T08:41:08.385Z,59.18
2016-12-06T08:42:08.709Z,59.18
2016-12-06T08:43:08.718Z,59.27
2016-12-06T08:44:08.733Z,59.18
2016-12-06T08:45:08.747Z,59.08
2016-12-06T08:46:08.445Z,58.33
2016-12-06T08:47:08.454Z,58.42
2016-12-06T08:48:08.787Z,58.33
2016-12-06T08:49:08.803Z,58.7
2016-12-06T08:50:08.813Z,58.23
2016-12-06T08:51:08.827Z,58.51
2016-12-06T08:52:08.525Z,58.7
2016-12-06T08:53:08.536Z,58.51
2016-12-06T08:54:08.555Z,58.61
2016-12-06T08:55:08.563Z,58.64
2016-12-06T08:56:08.893Z,58.54
2016-12-06T08:57:08.593Z,58.36
2016-12-06T08:58:08.601Z,58.26
2016-12-06T08:59:08.618Z,58.64
2016-12-06T09:00:08.948Z,58.54
2016-12-06T09:01:08.966Z,58.73
2016-12-06T09:02:08.657Z,59.21
2016-12-06T09:03:08.675Z,59.11
2016-12-06T09:04:09.000Z,59.4
2016-12-06T09:05:08.696Z,59.21
2016-12-06T09:06:23.600Z,58.73
2016-12-06T09:07:08.725Z,59.02
2016-12-06T09:08:09.061Z,59.02
2016-12-06T09:09:09.066Z,58.92
2016-12-06T09:10:09.082Z,58.54
2016-12-06T09:11:09.096Z,57.43
2016-12-06T09:12:08.793Z,56.58
2016-12-06T09:13:08.807Z,56.04
2016-12-06T09:14:08.825Z,55.3
2016-12-06T09:15:08.836Z,54.64
2016-12-06T09:16:08.850Z,53.97
2016-12-06T09:17:09.184Z,53.88
2016-12-06T09:18:09.198Z,54.17
2016-12-06T09:19:08.898Z,54.45
2016-12-06T09:20:08.911Z,52.01
2016-12-06T09:21:09.243Z,50.7
2016-12-06T09:22:08.944Z,49.37
2016-12-06T09:23:08.959Z,48.51
2016-12-06T09:24:08.974Z,47.18
2016-12-06T09:25:08.994Z,47.09
2016-12-06T09:26:09.009Z,48.71
2016-12-06T09:27:09.024Z,48.42
2016-12-06T09:28:09.364Z,48.51
2016-12-06T09:29:09.371Z,48.99
2016-12-06T09:30:09.391Z,47.87
2016-12-06T09:31:09.407Z,47.68
2016-12-06T09:32:09.425Z,47.78
2016-12-06T09:33:09.445Z,47.2
2016-12-06T09:34:09.460Z,47.58
2016-12-06T09:35:09.480Z,46.63
2016-12-06T09:36:09.493Z,47.71
2016-12-06T09:37:09.195Z,47.42
2016-12-06T09:38:09.215Z,47.16
2016-12-06T09:39:09.550Z,47.06
2016-12-06T09:40:09.565Z,47.44
2016-12-06T09:41:09.585Z,46.13
2016-12-06T09:42:09.290Z,45.47
2016-12-06T09:43:09.624Z,45.37
2016-12-06T09:44:09.644Z,45.01
2016-12-06T09:45:09.660Z,44.92
2016-12-06T09:46:09.682Z,43.49
2016-12-06T09:47:09.386Z,42.91
2016-12-06T09:48:09.403Z,41.1
2016-12-06T09:49:09.422Z,40.55
2016-12-06T09:50:09.762Z,40.17
2016-12-06T09:51:09.779Z,40.55
2016-12-06T09:52:09.484Z,40.57
2016-12-06T09:53:09.816Z,40.09
2016-12-06T09:54:09.521Z,40.28
2016-12-06T09:55:09.858Z,39.81
2016-12-06T09:56:09.562Z,39.61
2016-12-06T09:57:09.591Z,38.47
2016-12-06T09:58:09.603Z,36.87
2016-12-06T09:59:09.938Z,36.39
2016-12-06T10:00:09.957Z,36.66
2016-12-06T10:01:09.662Z,36.66
2016-12-06T10:02:09.683Z,37.92
2016-12-06T10:03:09.702Z,36.96
2016-12-06T10:04:09.722Z,36.58
2016-12-06T10:05:10.062Z,36.48
2016-12-06T10:06:10.083Z,36.27
2016-12-06T10:07:09.785Z,36.46
2016-12-06T10:08:10.122Z,36.92
2016-12-06T10:09:10.142Z,37.4
2016-12-06T10:10:09.847Z,37.32
2016-12-06T10:11:09.884Z,36.18
2016-12-06T10:12:10.202Z,35.8
2016-12-06T10:13:09.909Z,36.46
2016-12-06T10:14:10.246Z,37.04
2016-12-06T10:15:09.947Z,36.85
2016-12-06T10:16:09.974Z,36.83
2016-12-06T10:17:10.001Z,37.88
2016-12-06T10:18:10.325Z,37.21
2016-12-06T10:19:10.347Z,37.88
2016-12-06T10:20:10.366Z,36.94
2016-12-06T10:21:10.074Z,35.82
2016-12-06T10:22:10.092Z,36.68
2016-12-06T10:23:10.112Z,36.77
2016-12-06T10:24:10.136Z,35.93
2016-12-06T10:25:10.471Z,35.55
2016-12-06T10:26:10.492Z,34.59
2016-12-06T10:27:10.196Z,35.26
2016-12-06T10:28:10.531Z,34.4
2016-12-06T10:29:10.552Z,34.2
2016-12-06T10:30:10.592Z,34.51
2016-12-06T10:31:10.280Z,33.94
2016-12-06T10:32:10.614Z,33.36
2016-12-06T10:33:10.638Z,33.17
2016-12-06T10:34:10.343Z,32.79
2016-12-06T10:35:10.682Z,32.41
2016-12-06T10:36:10.705Z,32.98
2016-12-06T10:37:10.721Z,34.22
2016-12-06T10:38:10.425Z,33.86
2016-12-06T10:39:10.450Z,33.09
2016-12-06T10:40:10.467Z,32.71
2016-12-06T10:41:10.806Z,31.66
2016-12-06T10:42:10.518Z,31.56
2016-12-06T10:43:10.846Z,31.76
2016-12-06T10:44:10.561Z,31.2
2016-12-06T10:45:10.894Z,31.56
2016-12-06T10:46:10.598Z,30.72
2016-12-06T10:47:10.934Z,31.2
2016-12-06T10:48:10.684Z,31.67
2016-12-06T10:49:10.978Z,30.52
2016-12-06T10:50:10.999Z,29.95
2016-12-06T10:51:10.704Z,30.7
2016-12-06T10:52:10.726Z,30.98
2016-12-06T10:53:11.065Z,31.55
2016-12-06T10:54:10.772Z,31.35
2016-12-06T10:55:11.107Z,30.9
2016-12-06T10:56:10.815Z,31.95
2016-12-06T10:57:11.148Z,31.77
2016-12-06T10:58:10.855Z,31.87
2016-12-06T10:59:10.876Z,32.54
2016-12-06T11:00:10.900Z,32.36
2016-12-06T11:01:11.269Z,31.21
2016-12-06T11:02:11.261Z,30.54
2016-12-06T11:03:10.965Z,29.87
2016-12-06T11:04:10.985Z,30.73
2016-12-06T11:05:11.004Z,29.5
2016-12-06T11:06:11.343Z,30.06
2016-12-06T11:07:11.367Z,29.97
2016-12-06T11:08:11.071Z,30.54
2016-12-06T11:09:11.407Z,29.76
2016-12-06T11:10:11.114Z,30.72
2016-12-06T11:11:11.156Z,30.81
2016-12-06T11:12:11.169Z,31.02
2016-12-06T11:13:11.508Z,30.93
2016-12-06T11:14:11.205Z,30.65
2016-12-06T11:15:11.534Z,30.36
2016-12-06T11:16:11.248Z,30.46
2016-12-06T11:17:11.267Z,30.75
2016-12-06T11:18:11.288Z,30.29
2016-12-06T11:19:11.626Z,30.29
2016-12-06T11:20:11.330Z,30
2016-12-06T11:21:11.668Z,29.42
2016-12-06T11:22:11.374Z,28.37
2016-12-06T11:23:11.714Z,28.94
2016-12-06T11:24:11.733Z,28.27
2016-12-06T11:25:11.441Z,28.17
2016-12-06T11:26:11.467Z,28.08
2016-12-06T11:27:11.801Z,27.68
2016-12-06T11:28:11.822Z,27.79
2016-12-06T11:29:11.845Z,27.79
2016-12-06T11:30:11.867Z,27.79
2016-12-06T11:31:11.571Z,27.6
2016-12-06T11:32:11.593Z,27.5
2016-12-06T11:33:11.932Z,26.85
2016-12-06T11:34:11.659Z,26.85
2016-12-06T11:35:11.670Z,27.6
2016-12-06T11:36:11.997Z,27.41
2016-12-06T11:37:12.034Z,27.31
2016-12-06T11:38:11.725Z,27.03
2016-12-06T11:39:11.751Z,26.56
2016-12-06T11:40:11.772Z,27.41
2016-12-06T11:41:11.798Z,28.26
2016-12-06T11:42:11.817Z,28.75
2016-12-06T11:43:11.837Z,28.37
2016-12-06T11:44:11.860Z,28.08
2016-12-06T11:45:11.882Z,27.89
2016-12-06T11:46:11.903Z,27.5
2016-12-06T11:47:11.929Z,27.87
2016-12-06T11:48:12.264Z,28.55
2016-12-06T11:49:11.970Z,28.45
2016-12-06T11:50:12.014Z,28.35
2016-12-06T11:51:12.328Z,28.45
2016-12-06T11:52:12.040Z,28.55
2016-12-06T11:53:12.375Z,28.55
2016-12-06T11:54:12.399Z,28.06
2016-12-06T11:55:12.104Z,27.7
2016-12-06T11:56:12.442Z,28.16
2016-12-06T11:57:27.057Z,28.35
2016-12-06T11:58:12.485Z,28.26
2016-12-06T11:59:12.510Z,28.55
2016-12-06T12:00:12.213Z,28.83
2016-12-06T12:01:12.549Z,29.02
2016-12-06T12:02:12.261Z,28.26
2016-12-06T12:03:12.596Z,28.92
2016-12-06T12:04:12.622Z,28.64
2016-12-06T12:05:12.642Z,29.31
2016-12-06T12:06:12.661Z,29.5
2016-12-06T12:07:12.685Z,28.45
2016-12-06T12:08:12.387Z,28.81
2016-12-06T12:09:12.730Z,28.63
2016-12-06T12:10:12.435Z,29.2
2016-12-06T12:11:12.773Z,30.06
2016-12-06T12:12:12.477Z,29.41
2016-12-06T12:13:12.514Z,28.55
2016-12-06T12:14:12.843Z,28.35
2016-12-06T12:15:12.544Z,28.45
2016-12-06T12:16:12.567Z,27.87
2016-12-06T12:17:12.903Z,28.26
2016-12-06T12:18:12.613Z,28.72
2016-12-06T12:19:12.949Z,28.72
2016-12-06T12:20:12.975Z,28.81
2016-12-06T12:21:12.995Z,29.87
2016-12-06T12:22:13.015Z,29.22
2016-12-06T12:23:13.038Z,28.74
2016-12-06T12:24:13.060Z,27.79
2016-12-06T12:25:12.768Z,27.7
2016-12-06T12:26:12.786Z,27.5
2016-12-06T12:27:13.126Z,26.74
2016-12-06T12:28:12.831Z,26.82
2016-12-06T12:29:12.855Z,27.49
2016-12-06T12:30:12.876Z,26.92
2016-12-06T12:31:13.214Z,27.31
2016-12-06T12:32:12.918Z,27.01
2016-12-06T12:33:12.948Z,27.12
2016-12-06T12:34:13.285Z,27.3
2016-12-06T12:35:13.003Z,27.68
2016-12-06T12:36:13.015Z,28.16
2016-12-06T12:37:13.033Z,26.72
2016-12-06T12:38:13.368Z,27.01
2016-12-06T12:39:13.076Z,27.59
2016-12-06T12:40:13.095Z,28.16
2016-12-06T12:41:13.432Z,27.3
2016-12-06T12:42:13.456Z,27.68
2016-12-06T12:43:13.164Z,27.12
2016-12-06T12:44:13.501Z,26.93
2016-12-06T12:45:13.212Z,26.07
2016-12-06T12:46:13.230Z,26.63
2016-12-06T12:47:13.566Z,27.2
2016-12-06T12:48:13.274Z,27.5
2016-12-06T12:49:13.615Z,27.41
2016-12-06T12:50:13.317Z,27.5
2016-12-06T12:51:13.454Z,27.41
2016-12-06T12:52:13.361Z,27.03
2016-12-06T12:53:13.383Z,27.12
2016-12-06T12:54:13.839Z,25.87
2016-12-06T12:55:13.745Z,25.98
2016-12-06T12:56:13.450Z,26.54